Time;durP1;ratioP1;P1;durP2;ratioP2;P2;SDS_P1;SDS_P2;PMS_P1;PMS_P2;Temp;Humidity;BMP_temperature;BMP_pressure;BME280_temperature;BME280_humidity;BME280_pressure;Samples;Min_cycle;Max_cycle;Signal;HPM_P1;HPM_P2
2022/03/20 00:01:11;;;;;;;10.35;6.03;;;;;;;8.01;46.59;103187.19;5079572;28;20024;-66
2022/03/20 00:03:36;;;;;;;8.95;5.43;;;;;;;8.05;46.88;103177.41;5096238;28;20085;-66
2022/03/20 00:06:03;;;;;;;12.43;5.80;;;;;;;7.92;47.10;103179.38;5057637;28;20047;-66
2022/03/20 00:08:30;;;;;;;11.20;5.68;;;;;;;7.83;47.46;103171.56;5103134;28;20019;-66
2022/03/20 00:10:59;;;;;;;9.48;5.85;;;;;;;7.84;47.30;103162.72;5104053;28;20033;-66
2022/03/20 00:13:25;;;;;;;9.23;6.18;;;;;;;7.86;47.49;103145.91;5092073;28;20072;-66
2022/03/20 00:15:53;;;;;;;11.95;5.88;;;;;;;7.89;47.40;103163.53;5096662;28;20032;-66
2022/03/20 00:18:26;;;;;;;11.95;6.28;;;;;;;7.74;47.93;103159.31;5089633;28;20038;-66
2022/03/20 00:21:01;;;;;;;11.00;6.80;;;;;;;7.76;47.90;103165.44;5090699;28;20028;-66
2022/03/20 00:23:27;;;;;;;8.73;6.70;;;;;;;7.73;48.16;103161.09;5093717;28;20038;-66
2022/03/20 00:25:54;;;;;;;11.27;6.65;;;;;;;7.74;48.10;103157.53;5073649;28;20475;-66
2022/03/20 00:28:23;;;;;;;9.63;6.80;;;;;;;7.62;48.92;103149.78;5092783;28;20100;-66
2022/03/20 00:30:49;;;;;;;8.98;6.95;;;;;;;7.58;48.77;103150.69;5096729;28;20047;-66
2022/03/20 00:33:15;;;;;;;11.55;7.70;;;;;;;7.42;49.43;103146.50;5092968;28;20095;-66
2022/03/20 00:35:41;;;;;;;10.00;7.07;;;;;;;7.53;49.41;103138.41;5087330;28;20153;-66
2022/03/20 00:38:10;;;;;;;11.68;7.90;;;;;;;7.59;49.11;103127.72;5056907;28;20032;-66
2022/03/20 00:40:38;;;;;;;12.27;7.90;;;;;;;7.61;48.67;103123.28;5095515;28;20111;-66
2022/03/20 00:43:08;;;;;;;12.00;7.82;;;;;;;7.59;49.33;103119.78;5091698;28;20020;-66
2022/03/20 00:45:34;;;;;;;;;;;;;;;7.68;48.05;103106.44;5110374;28;21807;-66
2022/03/20 00:48:00;;;;;;;14.25;7.72;;;;;;;7.50;49.32;103104.94;5106562;28;19915;-66
2022/03/20 00:50:26;;;;;;;12.73;7.93;;;;;;;7.25;50.19;103099.06;5103452;28;20025;-66
2022/03/20 00:52:51;;;;;;;10.05;7.85;;;;;;;7.26;50.59;103100.81;5097350;28;20023;-66
2022/03/20 00:55:17;;;;;;;12.75;8.43;;;;;;;7.33;50.45;103104.28;5085629;28;20399;-66
2022/03/20 00:57:43;;;;;;;10.68;8.38;;;;;;;7.38;50.40;103100.69;5110448;28;20031;-66
2022/03/20 01:00:10;;;;;;;12.23;8.40;;;;;;;7.26;50.37;103096.41;5086041;28;20034;-66
2022/03/20 01:02:43;;;;;;;11.07;8.18;;;;;;;7.37;49.84;103098.91;5106015;28;20024;-66
2022/03/20 01:05:09;;;;;;;14.20;8.93;;;;;;;7.10;50.92;103088.69;5104768;28;20073;-66
2022/03/20 01:07:36;;;;;;;12.10;8.95;;;;;;;7.04;51.03;103090.50;5104630;28;20020;-66
2022/03/20 01:10:04;;;;;;;13.27;9.07;;;;;;;6.88;51.72;103078.34;5095686;28;20024;-66
2022/03/20 01:12:29;;;;;;;12.13;8.88;;;;;;;7.01;51.76;103082.59;5082071;28;20470;-66
2022/03/20 01:14:55;;;;;;;12.80;9.05;;;;;;;6.81;51.64;103074.03;5108102;28;20032;-65
2022/03/20 01:17:21;;;;;;;13.57;9.65;;;;;;;6.88;52.33;103082.75;5063480;28;20027;-66
2022/03/20 01:19:47;;;;;;;15.02;9.38;;;;;;;6.86;51.89;103079.28;5082678;28;20028;-66
2022/03/20 01:22:12;;;;;;;12.07;9.07;;;;;;;6.77;52.28;103067.03;5087375;28;20043;-66
2022/03/20 01:24:38;;;;;;;15.20;9.90;;;;;;;6.69;51.86;103064.47;5085323;28;20063;-66
2022/03/20 01:27:04;;;;;;;16.48;9.95;;;;;;;6.66;52.11;103069.78;5094319;28;20028;-66
2022/03/20 01:29:29;;;;;;;13.52;9.75;;;;;;;6.52;52.79;103055.84;5095676;28;20040;-66
2022/03/20 01:31:57;;;;;;;14.63;10.27;;;;;;;6.53;52.92;103062.84;5080525;28;20088;-66
2022/03/20 01:34:22;;;;;;;16.33;10.65;;;;;;;6.55;52.90;103056.66;5105393;28;20028;-66
2022/03/20 01:36:48;;;;;;;16.25;10.13;;;;;;;6.44;52.73;103050.66;5078997;28;20035;-66
2022/03/20 01:39:15;;;;;;;13.27;10.63;;;;;;;6.35;53.49;103045.41;5086517;28;20039;-66
2022/03/20 01:41:40;;;;;;;20.42;11.43;;;;;;;6.34;53.73;103035.75;5065955;28;20467;-66
2022/03/20 01:44:06;;;;;;;15.85;10.55;;;;;;;6.35;53.20;103041.03;5101213;28;20026;-66
2022/03/20 01:46:32;;;;;;;14.20;10.98;;;;;;;6.26;53.65;103025.25;5076793;28;20024;-66
2022/03/20 01:48:57;;;;;;;15.57;11.70;;;;;;;6.20;53.23;103019.16;5078454;28;20471;-66
2022/03/20 01:52:10;;;;;;;16.38;12.40;;;;;;;6.31;53.56;103020.81;5090462;28;20035;-66
2022/03/20 01:54:13;;;;;;;20.23;12.32;;;;;;;6.22;53.33;103005.03;5074947;28;20032;-66
2022/03/20 01:56:46;;;;;;;17.67;12.95;;;;;;;6.28;52.92;103019.97;5101556;28;20523;-66
2022/03/20 01:59:14;;;;;;;17.25;13.48;;;;;;;6.30;52.62;103019.06;5112271;28;20043;-66
2022/03/20 02:01:39;;;;;;;19.85;14.18;;;;;;;6.24;53.36;103013.84;5106869;28;20110;-66
2022/03/20 02:04:05;;;;;;;17.27;13.43;;;;;;;6.28;52.54;103009.41;5091800;28;20165;-68
2022/03/20 02:06:31;;;;;;;20.98;15.18;;;;;;;6.20;52.83;103011.22;5097027;28;20508;-66
2022/03/20 02:08:56;;;;;;;18.92;15.45;;;;;;;6.10;52.61;103003.41;5084728;28;20034;-66
2022/03/20 02:11:25;;;;;;;21.15;15.68;;;;;;;6.10;52.52;102992.84;5100951;28;20015;-66
2022/03/20 02:13:52;;;;;;;22.55;16.33;;;;;;;6.17;53.01;102992.75;5074602;28;20360;-66
2022/03/20 02:16:18;;;;;;;26.23;17.30;;;;;;;6.07;52.92;102973.50;5109031;28;20035;-66
2022/03/20 02:18:44;;;;;;;26.33;17.13;;;;;;;6.19;52.24;102991.88;5107605;28;20039;-66
2022/03/20 02:21:11;;;;;;;25.17;17.85;;;;;;;6.14;52.28;102983.97;5093861;28;20031;-66
2022/03/20 02:23:37;;;;;;;24.08;17.48;;;;;;;6.05;51.95;102984.06;5100166;28;20032;-66
2022/03/20 02:26:03;;;;;;;24.08;17.92;;;;;;;5.98;52.29;102978.88;5106173;28;20035;-66
2022/03/20 02:28:29;;;;;;;24.23;17.50;;;;;;;6.00;52.18;102974.44;5083234;28;20027;-66
2022/03/20 02:30:55;;;;;;;25.35;19.33;;;;;;;5.89;53.12;102974.53;5082545;28;20106;-66
2022/03/20 02:33:23;;;;;;;25.40;18.17;;;;;;;5.81;53.25;102968.44;5097515;28;20123;-66
2022/03/20 02:35:51;;;;;;;30.13;19.17;;;;;;;5.86;52.69;102962.22;5100987;28;20035;-66
2022/03/20 02:38:20;;;;;;;25.92;18.33;;;;;;;5.87;53.07;102965.72;5109399;28;20483;-66
2022/03/20 02:40:50;;;;;;;23.45;18.52;;;;;;;5.86;52.82;102958.72;5091755;28;20028;-66
2022/03/20 02:43:17;;;;;;;27.75;19.55;;;;;;;5.83;52.64;102956.97;5099310;28;20054;-66
2022/03/20 02:45:43;;;;;;;29.15;20.02;;;;;;;5.69;52.63;102954.44;5100736;28;20027;-66
2022/03/20 02:48:10;;;;;;;27.13;19.88;;;;;;;5.74;52.87;102951.78;5087212;28;20028;-66
2022/03/20 02:50:37;;;;;;;28.13;19.52;;;;;;;5.64;52.39;102943.03;5111570;28;20120;-66
2022/03/20 02:53:13;;;;;;;27.35;21.50;;;;;;;5.61;52.71;102947.47;5078041;28;20034;-66
2022/03/20 02:55:47;;;;;;;29.77;22.08;;;;;;;5.48;53.31;102938.78;5077398;28;20454;-66
2022/03/20 02:58:15;;;;;;;25.02;20.25;;;;;;;5.47;52.92;102943.19;5095413;28;20402;-66
2022/03/20 03:00:42;;;;;;;25.33;20.65;;;;;;;5.51;52.73;102944.03;5110846;28;20687;-66
2022/03/20 03:03:11;;;;;;;28.67;20.33;;;;;;;5.58;53.36;102942.22;5111718;28;20031;-66
2022/03/20 03:05:38;;;;;;;28.02;21.30;;;;;;;5.65;52.30;102941.28;5106679;28;20039;-66
2022/03/20 03:10:57;;;;;;;27.98;21.23;;;;;;;5.59;52.60;102936.03;5106027;28;20085;-66
2022/03/20 03:13:39;;;;;;;28.63;21.17;;;;;;;5.49;53.03;102924.69;5080569;28;20024;-66
2022/03/20 03:16:07;;;;;;;26.98;21.08;;;;;;;5.44;52.79;102918.56;5094863;28;20040;-66
2022/03/20 03:18:33;;;;;;;33.25;22.52;;;;;;;5.38;53.51;102919.53;5099599;28;20077;-66
2022/03/20 03:20:59;;;;;;;27.95;22.23;;;;;;;5.54;53.02;102914.13;5100111;28;20107;-65
2022/03/20 03:23:25;;;;;;;29.73;21.95;;;;;;;5.42;52.96;102917.72;5101800;28;20441;-66
2022/03/20 03:25:54;;;;;;;32.65;23.58;;;;;;;5.47;53.23;102910.63;5073625;28;20387;-66
2022/03/20 03:28:22;;;;;;;32.17;23.47;;;;;;;5.34;53.05;102904.59;5101289;28;20487;-66
2022/03/20 03:30:48;;;;;;;29.88;23.40;;;;;;;5.47;52.25;102905.34;5084881;28;20277;-66
2022/03/20 03:33:18;;;;;;;31.77;23.30;;;;;;;5.33;53.48;102901.97;5097477;28;20031;-66
2022/03/20 03:35:53;;;;;;;;;;;;;;;5.45;52.33;102891.31;5102319;28;20035;-66
2022/03/20 03:38:21;;;;;;;32.00;23.52;;;;;;;5.34;53.05;102885.25;5098523;28;20289;-66
2022/03/20 03:40:48;;;;;;;32.03;23.13;;;;;;;5.41;53.01;102887.84;5100959;28;20233;-66
2022/03/20 03:43:17;;;;;;;33.55;23.67;;;;;;;5.29;53.40;102877.34;5100015;28;20527;-66
2022/03/20 03:45:43;;;;;;;36.45;25.65;;;;;;;5.21;52.73;102887.13;5076328;28;20057;-66
2022/03/20 03:48:10;;;;;;;31.08;24.08;;;;;;;5.19;53.39;102873.94;5105243;28;20114;-66
2022/03/20 03:50:37;;;;;;;32.10;24.67;;;;;;;5.18;53.59;102864.28;5097422;28;20032;-66
2022/03/20 03:53:04;;;;;;;31.30;24.17;;;;;;;5.13;53.29;102854.66;5103947;28;20024;-66
2022/03/20 03:55:31;;;;;;;35.13;24.67;;;;;;;5.12;53.91;102866.97;5100595;28;20393;-66
2022/03/20 03:57:57;;;;;;;33.20;25.85;;;;;;;5.12;54.23;102864.34;5078277;28;20038;-66
2022/03/20 04:00:24;;;;;;;34.70;25.08;;;;;;;4.98;54.24;102861.78;5098744;28;20409;-66
2022/03/20 04:02:49;;;;;;;36.67;26.10;;;;;;;5.01;53.93;102864.41;5086956;28;20446;-65
2022/03/20 04:05:17;;;;;;;33.15;25.13;;;;;;;5.10;53.75;102857.31;5105719;28;20126;-65
2022/03/20 04:07:44;;;;;;;33.55;26.20;;;;;;;5.11;53.96;102851.13;5100777;28;20051;-66
2022/03/20 04:10:12;;;;;;;32.15;25.10;;;;;;;5.14;53.91;102856.38;5092263;28;20386;-65
2022/03/20 04:12:40;;;;;;;35.22;26.00;;;;;;;5.06;54.59;102843.28;5110418;28;20447;-66
2022/03/20 04:15:10;;;;;;;30.85;24.38;;;;;;;4.94;54.84;102840.72;5106022;28;20075;-66
2022/03/20 04:17:37;;;;;;;32.13;24.02;;;;;;;4.92;55.14;102832.84;5110410;28;20036;-66
2022/03/20 04:20:05;;;;;;;36.45;26.63;;;;;;;4.80;55.40;102830.28;5101118;28;20119;-66
2022/03/20 04:22:35;;;;;;;34.10;25.02;;;;;;;4.82;55.46;102825.00;5089697;28;20035;-66
2022/03/20 04:25:00;;;;;;;36.72;25.33;;;;;;;4.77;55.53;102820.63;5076206;28;20032;-66
2022/03/20 04:27:27;;;;;;;33.72;24.77;;;;;;;4.76;55.13;102824.16;5075830;28;20039;-66
2022/03/20 04:29:53;;;;;;;35.33;26.98;;;;;;;4.68;55.86;102807.53;5075014;28;20058;-66
2022/03/20 04:32:18;;;;;;;32.63;24.42;;;;;;;4.67;55.99;102807.53;5082255;28;20043;-66
2022/03/20 04:34:44;;;;;;;34.83;25.33;;;;;;;4.62;55.57;102796.13;5102023;28;20034;-66
2022/03/20 04:37:11;;;;;;;32.80;24.48;;;;;;;4.87;55.09;102802.97;5106644;28;20425;-67
2022/03/20 04:39:38;;;;;;;37.63;26.63;;;;;;;4.76;55.12;102803.09;5091806;28;20027;-66
2022/03/20 04:42:04;;;;;;;35.28;26.30;;;;;;;4.68;55.28;102798.75;5095840;28;20084;-65
2022/03/20 04:44:31;;;;;;;40.10;27.77;;;;;;;4.82;54.79;102798.63;5105573;28;20567;-66
2022/03/20 04:46:56;;;;;;;34.17;25.48;;;;;;;4.70;55.30;102804.88;5101313;28;20046;-66
2022/03/20 05:00:21;;;;;;;35.38;26.95;;;;;;;4.47;55.74;102776.94;5089731;28;20051;-67
2022/03/20 05:02:48;;;;;;;34.10;27.17;;;;;;;4.35;56.18;102771.72;5090289;28;20032;-67
2022/03/20 05:05:14;;;;;;;37.15;26.63;;;;;;;4.20;56.69;102766.53;5107569;28;20031;-66
2022/03/20 05:07:40;;;;;;;33.22;25.52;;;;;;;4.34;56.89;102769.97;5101186;28;20024;-66
2022/03/20 05:15:37;;;;;;;36.53;27.60;;;;;;;4.32;57.04;102755.94;5100384;28;20094;-67
2022/03/20 05:18:07;;;;;;;34.75;26.55;;;;;;;4.35;56.78;102755.91;5098319;28;20101;-66
2022/03/20 05:20:32;;;;;;;38.03;28.60;;;;;;;4.32;56.19;102750.66;5093750;28;20387;-67
2022/03/20 05:22:59;;;;;;;35.97;27.77;;;;;;;4.31;56.36;102755.06;5078019;28;20038;-67
2022/03/20 05:25:31;;;;;;;35.45;27.27;;;;;;;4.21;56.61;102752.50;5086661;28;20479;-67
2022/03/20 05:27:57;;;;;;;34.95;26.45;;;;;;;4.27;56.53;102755.97;5113361;28;20070;-67
2022/03/20 05:30:23;;;;;;;36.58;26.67;;;;;;;4.21;56.84;102749.88;5105330;28;20110;-67
2022/03/20 05:32:50;;;;;;;35.45;26.55;;;;;;;4.20;56.47;102743.72;5102854;28;20074;-67
2022/03/20 05:35:18;;;;;;;38.70;27.10;;;;;;;4.14;56.74;102748.13;5074804;28;20108;-67
2022/03/20 05:37:44;;;;;;;37.03;28.33;;;;;;;4.16;56.70;102736.72;5097011;28;20074;-67
2022/03/20 05:40:11;;;;;;;36.45;26.73;;;;;;;4.22;56.11;102735.81;5097614;28;20372;-67
2022/03/20 05:42:36;;;;;;;34.58;26.45;;;;;;;4.18;56.31;102734.97;5101987;28;20035;-67
2022/03/20 05:45:06;;;;;;;37.60;26.75;;;;;;;4.25;56.07;102733.16;5082406;28;20034;-67
2022/03/20 05:47:32;;;;;;;37.80;27.10;;;;;;;4.15;56.25;102727.09;5096583;28;20433;-66
2022/03/20 05:50:02;;;;;;;33.97;26.42;;;;;;;4.17;56.38;102727.06;5095000;28;20054;-66
2022/03/20 05:52:31;;;;;;;37.75;28.45;;;;;;;4.15;56.36;102723.56;5096780;28;20031;-67
2022/03/20 05:55:00;;;;;;;38.23;27.57;;;;;;;4.02;55.95;102713.09;5099848;28;20036;-67
2022/03/20 06:00:16;;;;;;;33.75;26.92;;;;;;;4.00;55.95;102728.06;5098978;28;20042;-67
2022/03/20 06:02:44;;;;;;;36.13;26.85;;;;;;;4.06;55.95;102727.13;5105621;28;20883;-67
2022/03/20 06:05:11;;;;;;;35.45;25.90;;;;;;;4.01;55.99;102721.03;5092449;28;20032;-67
2022/03/20 06:08:01;;;;;;;35.85;27.17;;;;;;;4.03;55.84;102716.59;5074138;28;20027;-67
2022/03/20 06:10:26;;;;;;;36.65;28.30;;;;;;;3.94;55.48;102719.28;5092904;28;20036;-66
2022/03/20 06:12:52;;;;;;;33.10;25.88;;;;;;;3.99;55.14;102720.16;5067271;28;20088;-67
2022/03/20 06:15:17;;;;;;;32.28;25.48;;;;;;;4.12;55.11;102721.84;5073831;28;20050;-66
2022/03/20 06:17:45;;;;;;;35.80;26.55;;;;;;;4.14;54.27;102722.69;5083532;28;20036;-67
2022/03/20 06:20:12;;;;;;;35.78;26.88;;;;;;;4.26;54.37;102724.38;5101405;28;20052;-67
2022/03/20 06:22:42;;;;;;;35.38;26.27;;;;;;;4.23;53.52;102721.75;5108990;28;20050;-67
2022/03/20 06:25:09;;;;;;;39.28;25.25;;;;;;;4.30;53.61;102726.13;5100086;28;20028;-67
2022/03/20 06:27:53;;;;;;;33.33;25.10;;;;;;;4.33;53.69;102718.19;5094548;28;20023;-67
2022/03/20 06:30:21;;;;;;;31.88;24.90;;;;;;;4.40;52.34;102719.00;5111302;28;20467;-67
2022/03/20 06:32:47;;;;;;;36.30;24.95;;;;;;;4.41;52.22;102723.38;5103823;28;20032;-67
2022/03/20 06:35:14;;;;;;;34.50;24.52;;;;;;;4.39;51.92;102726.03;5073293;28;20047;-67
2022/03/20 06:37:43;;;;;;;34.30;24.85;;;;;;;4.49;51.90;102726.84;5103883;28;20031;-67
2022/03/20 06:40:09;;;;;;;36.10;25.63;;;;;;;4.59;51.69;102720.63;5105274;28;20038;-67
2022/03/20 06:42:36;;;;;;;34.55;23.48;;;;;;;4.62;51.80;102710.06;5111107;28;20035;-67
2022/03/20 06:45:07;;;;;;;35.67;25.17;;;;;;;4.51;51.64;102701.38;5099931;28;20031;-67
2022/03/20 06:47:33;;;;;;;33.20;23.85;;;;;;;4.53;51.01;102699.59;5106401;28;20047;-66
2022/03/20 06:50:00;;;;;;;34.60;23.95;;;;;;;4.56;51.49;102689.03;5092499;28;20462;-67
2022/03/20 06:52:28;;;;;;;34.08;23.45;;;;;;;4.67;50.77;102688.94;5082566;28;20118;-67
2022/03/20 06:54:58;;;;;;;31.90;23.67;;;;;;;4.75;50.70;102687.97;5100988;28;20442;-66
2022/03/20 06:57:28;;;;;;;33.50;23.23;;;;;;;4.75;50.06;102690.59;5083438;28;20075;-67
2022/03/20 06:59:56;;;;;;;32.38;24.48;;;;;;;4.77;50.65;102691.47;5092418;28;20020;-67
2022/03/20 07:02:23;;;;;;;33.17;23.77;;;;;;;4.74;49.96;102686.22;5090994;28;20028;-67
2022/03/20 07:04:51;;;;;;;33.63;23.98;;;;;;;4.83;50.01;102687.03;5091474;28;20031;-67
2022/03/20 07:07:21;;;;;;;34.63;23.38;;;;;;;4.83;49.97;102681.78;5093241;28;20050;-67
2022/03/20 07:09:47;;;;;;;35.15;23.63;;;;;;;4.88;50.07;102677.31;5109162;28;20023;-66
2022/03/20 07:12:13;;;;;;;30.85;23.75;;;;;;;4.96;48.90;102673.72;5076864;28;20105;-67
2022/03/20 07:14:39;;;;;;;30.95;23.55;;;;;;;4.92;49.16;102673.78;5073335;28;20048;-67
2022/03/20 07:17:09;;;;;;;31.33;23.83;;;;;;;4.93;49.86;102655.28;5063884;28;20739;-66
2022/03/20 07:19:38;;;;;;;31.38;22.85;;;;;;;4.98;49.54;102668.44;5066371;28;20071;-66
2022/03/20 07:22:05;;;;;;;34.10;22.70;;;;;;;4.98;48.44;102645.56;5055368;28;20017;-67
2022/03/20 07:24:32;;;;;;;31.70;23.17;;;;;;;4.95;48.29;102634.19;5055721;28;20021;-67
2022/03/20 07:29:42;;;;;;;33.63;22.83;;;;;;;5.10;47.56;102638.41;5065303;28;20043;-67
2022/03/20 07:32:09;;;;;;;31.75;23.40;;;;;;;5.09;47.20;102640.19;5069717;28;20033;-67
2022/03/20 07:34:36;;;;;;;31.60;23.48;;;;;;;5.07;47.44;102635.81;5069473;28;20078;-66
2022/03/20 07:37:03;;;;;;;30.30;22.75;;;;;;;5.06;46.90;102631.41;5070403;28;20063;-67
2022/03/20 07:39:29;;;;;;;30.42;23.05;;;;;;;5.13;47.28;102646.28;5061774;28;20055;-67
2022/03/20 07:41:55;;;;;;;31.05;23.98;;;;;;;5.14;46.87;102656.81;5069100;28;20031;-67
2022/03/20 07:44:23;;;;;;;32.63;23.40;;;;;;;5.13;46.51;102651.56;5065299;28;20052;-67
2022/03/20 07:46:52;;;;;;;31.85;23.63;;;;;;;5.14;45.72;102648.91;5068407;28;20024;-67
2022/03/20 07:49:20;;;;;;;32.63;23.67;;;;;;;5.17;46.24;102646.22;5051678;28;20082;-66
2022/03/20 07:51:46;;;;;;;32.75;23.27;;;;;;;5.11;46.12;102642.78;5052057;28;20435;-66
2022/03/20 07:54:12;;;;;;;30.67;23.02;;;;;;;5.09;46.31;102642.81;5044248;28;20032;-66
2022/03/20 07:56:37;;;;;;;35.03;24.30;;;;;;;5.05;46.33;102648.13;5055422;28;20502;-66
2022/03/20 07:59:06;;;;;;;29.42;22.23;;;;;;;5.07;45.79;102652.50;5058475;28;20135;-67
2022/03/20 08:01:33;;;;;;;29.47;21.63;;;;;;;5.08;46.44;102656.00;5063701;28;20490;-67
2022/03/20 08:03:59;;;;;;;30.05;22.25;;;;;;;5.11;46.40;102633.09;5069558;28;20024;-67
2022/03/20 08:06:25;;;;;;;31.90;22.83;;;;;;;5.23;46.78;102642.66;5057572;28;20453;-67
2022/03/20 08:08:50;;;;;;;32.22;23.40;;;;;;;5.23;45.94;102638.28;5066515;28;20040;-67
2022/03/20 08:11:18;;;;;;;29.00;21.80;;;;;;;5.17;47.04;102637.44;5069524;28;20032;-66
2022/03/20 08:13:46;;;;;;;31.17;23.42;;;;;;;5.20;45.95;102633.00;5072751;28;20024;-67
2022/03/20 08:16:16;;;;;;;34.53;25.15;;;;;;;5.30;45.94;102635.56;5074722;28;20052;-67
2022/03/20 08:18:45;;;;;;;;;;;;;;;5.41;45.99;102646.81;5076834;28;20033;-66
2022/03/20 08:21:11;;;;;;;32.67;22.20;;;;;;;5.42;46.06;102649.47;5081412;28;19916;-67
2022/03/20 08:23:38;;;;;;;34.97;23.70;;;;;;;5.44;45.97;102629.22;5078744;28;20062;-66
2022/03/20 08:26:03;;;;;;;38.33;23.73;;;;;;;5.49;46.08;102634.41;5083824;28;20451;-67
2022/03/20 08:28:29;;;;;;;32.03;25.55;;;;;;;5.49;46.48;102631.78;5072741;28;20114;-66
2022/03/20 08:30:56;;;;;;;36.60;29.35;;;;;;;5.53;46.02;102619.41;5073746;28;20376;-66
2022/03/20 08:33:22;;;;;;;33.47;24.33;;;;;;;5.53;45.26;102608.84;5093864;28;20478;-66
2022/03/20 08:35:47;;;;;;;42.45;29.90;;;;;;;5.64;45.36;102618.34;5085273;28;20438;-66
2022/03/20 08:38:13;;;;;;;34.53;27.38;;;;;;;5.69;45.23;102620.94;5092578;28;20062;-66
2022/03/20 08:40:39;;;;;;;28.67;23.50;;;;;;;5.72;44.65;102609.47;5087550;28;20115;-65
2022/03/20 08:43:06;;;;;;;30.63;24.45;;;;;;;5.65;46.06;102614.84;5091369;28;20746;-65
2022/03/20 08:45:33;;;;;;;33.08;24.23;;;;;;;5.68;46.04;102609.53;5087887;28;20035;-66
2022/03/20 08:48:03;;;;;;;32.30;25.48;;;;;;;5.72;45.86;102612.13;5080143;28;20075;-66
2022/03/20 08:50:29;;;;;;;36.28;25.73;;;;;;;5.59;46.23;102612.28;5074390;28;20078;-65
2022/03/20 08:52:55;;;;;;;37.95;26.08;;;;;;;5.62;45.23;102616.66;5086357;28;20016;-66
2022/03/20 08:55:21;;;;;;;42.78;29.42;;;;;;;5.56;46.88;102607.06;5074036;28;20051;-65
2022/03/20 08:57:48;;;;;;;44.35;31.10;;;;;;;5.68;46.26;102621.84;5088794;28;20032;-66
2022/03/20 09:00:20;;;;;;;35.17;27.13;;;;;;;5.74;46.48;102616.50;5082796;28;20024;-65
2022/03/20 09:02:48;;;;;;;33.45;24.65;;;;;;;5.75;45.93;102625.28;5076867;28;20149;-65
2022/03/20 09:05:14;;;;;;;59.80;36.58;;;;;;;5.81;45.89;102619.91;5085896;28;20026;-65
2022/03/20 09:07:45;;;;;;;67.18;42.92;;;;;;;5.83;46.05;102608.44;5082264;28;20030;-66
2022/03/20 09:10:14;;;;;;;31.98;22.95;;;;;;;5.89;44.74;102605.69;5086339;28;20056;-65
2022/03/20 09:12:43;;;;;;;30.23;23.25;;;;;;;5.95;45.24;102599.47;5087138;28;20020;-65
2022/03/20 09:15:14;;;;;;;33.05;23.27;;;;;;;6.13;44.95;102588.63;5084829;28;20036;-65
2022/03/20 09:20:42;;;;;;;28.67;22.65;;;;;;;6.66;44.46;102590.34;5069971;28;20416;-65
2022/03/20 09:23:09;;;;;;;32.00;23.30;;;;;;;7.02;43.51;102579.03;5070435;28;20495;-65
2022/03/20 09:25:35;;;;;;;33.22;22.67;;;;;;;7.43;42.36;102576.44;5070084;28;20498;-65
2022/03/20 09:28:03;;;;;;;34.17;23.90;;;;;;;7.69;42.14;102566.13;5069673;28;20028;-65
2022/03/20 09:30:31;;;;;;;31.67;23.08;;;;;;;8.01;41.58;102567.13;5069545;28;20029;-65
2022/03/20 09:32:57;;;;;;;31.05;22.75;;;;;;;8.31;39.74;102562.81;5069391;28;20511;-65
2022/03/20 09:35:23;;;;;;;35.97;24.85;;;;;;;8.44;40.17;102558.09;5068129;28;20098;-66
2022/03/20 09:37:48;;;;;;;34.88;24.13;;;;;;;8.35;39.20;102556.56;5070163;28;20044;-65
2022/03/20 09:40:15;;;;;;;33.47;24.23;;;;;;;8.07;39.20;102560.81;5069696;28;20085;-65
2022/03/20 09:42:41;;;;;;;35.47;26.17;;;;;;;7.97;39.66;102541.59;5053259;28;20438;-64
2022/03/20 09:45:09;;;;;;;32.47;24.58;;;;;;;8.01;39.65;102545.94;5069271;28;20120;-66
2022/03/20 09:47:41;;;;;;;34.17;23.45;;;;;;;8.05;40.46;102546.72;5074053;28;20107;-65
2022/03/20 09:50:08;;;;;;;36.17;24.63;;;;;;;8.10;40.13;102544.84;5083965;28;20036;-64
2022/03/20 09:52:35;;;;;;;33.47;25.45;;;;;;;8.06;39.81;102538.75;5087076;28;20036;-65
2022/03/20 09:55:02;;;;;;;33.92;24.77;;;;;;;8.13;39.23;102544.75;5100241;28;20398;-66
2022/03/20 09:57:29;;;;;;;34.15;26.20;;;;;;;8.15;39.69;102558.84;5092640;28;20429;-66
2022/03/20 09:59:56;;;;;;;34.65;25.23;;;;;;;8.11;39.59;102554.50;5102759;28;20016;-66
2022/03/20 10:02:27;;;;;;;33.33;24.90;;;;;;;7.99;39.98;102558.34;5099316;28;20067;-66
2022/03/20 10:04:59;;;;;;;34.65;25.45;;;;;;;7.92;40.15;102552.31;5094465;28;20031;-65
2022/03/20 10:07:28;;;;;;;38.58;25.38;;;;;;;7.85;40.33;102555.16;5096324;28;20023;-65
2022/03/20 10:10:31;;;;;;;34.38;25.20;;;;;;;7.74;40.66;102556.28;5097817;28;20106;-65
2022/03/20 10:12:59;;;;;;;32.67;24.85;;;;;;;7.71;40.56;102550.22;5111861;28;20571;-65
2022/03/20 10:15:34;;;;;;;36.00;25.98;;;;;;;7.74;40.95;102556.28;5111446;28;20100;-65
2022/03/20 10:18:21;;;;;;;33.05;24.55;;;;;;;7.78;41.02;102564.16;5084773;28;20028;-66
2022/03/20 10:20:58;;;;;;;34.47;24.98;;;;;;;7.75;41.24;102546.56;5101990;28;20067;-65
2022/03/20 10:23:36;;;;;;;35.10;26.83;;;;;;;7.68;41.39;102547.63;5109929;28;20482;-65
2022/03/20 10:26:09;;;;;;;43.42;28.30;;;;;;;7.47;41.76;102536.63;5095784;28;20020;-66
2022/03/20 10:28:42;;;;;;;38.42;29.33;;;;;;;7.54;42.27;102547.94;5089406;28;20046;-65
2022/03/20 10:31:10;;;;;;;38.53;27.83;;;;;;;7.57;42.08;102533.75;5079833;28;20459;-66
2022/03/20 10:33:41;;;;;;;37.22;29.77;;;;;;;7.71;42.14;102543.13;5094702;28;20497;-65
2022/03/20 10:36:17;;;;;;;38.58;29.15;;;;;;;7.90;42.32;102532.94;5094580;28;20122;-65
2022/03/20 10:38:45;;;;;;;36.10;28.50;;;;;;;8.11;42.61;102544.78;5094364;28;20036;-65
2022/03/20 10:41:32;;;;;;;37.15;29.33;;;;;;;8.48;45.10;102541.22;5091745;28;20516;-65
2022/03/20 10:43:58;;;;;;;40.45;29.55;;;;;;;8.74;45.30;102545.81;5092391;28;20098;-65
2022/03/20 10:46:29;;;;;;;39.97;31.05;;;;;;;8.76;45.95;102551.03;5093332;28;20016;-65
2022/03/20 10:49:04;;;;;;;42.80;30.55;;;;;;;8.60;46.40;102545.31;5096706;28;20132;-66
2022/03/20 10:51:42;;;;;;;41.00;31.38;;;;;;;8.50;47.07;102549.09;5091706;28;20028;-65
2022/03/20 10:54:13;;;;;;;42.40;30.98;;;;;;;8.36;47.46;102541.50;5106605;28;20061;-65
2022/03/20 10:57:00;;;;;;;39.00;29.25;;;;;;;8.22;48.18;102570.16;5092079;28;20024;-65
2022/03/20 10:59:27;;;;;;;43.03;31.33;;;;;;;8.17;48.68;102555.22;5093002;28;20083;-65
2022/03/20 11:01:53;;;;;;;42.42;31.85;;;;;;;8.04;49.27;102556.44;5091291;28;20498;-66
2022/03/20 11:04:20;;;;;;;40.97;31.02;;;;;;;8.01;50.39;102551.22;5101035;28;20028;-65
2022/03/20 11:06:48;;;;;;;41.83;31.70;;;;;;;7.94;51.20;102561.13;5091139;28;20140;-65
2022/03/20 11:09:15;;;;;;;37.50;31.30;;;;;;;7.88;52.13;102570.97;5091963;28;20028;-65
2022/03/20 11:11:48;;;;;;;42.95;32.75;;;;;;;7.80;52.84;102573.81;5073457;28;20040;-65
2022/03/20 11:14:19;;;;;;;40.03;31.60;;;;;;;7.63;53.22;102571.56;5109256;28;20034;-65
2022/03/20 11:16:47;;;;;;;43.53;32.58;;;;;;;7.60;53.71;102574.28;5110805;28;20055;-65
2022/03/20 11:19:13;;;;;;;41.53;31.77;;;;;;;7.56;53.31;102574.38;5108392;28;20019;-65
2022/03/20 11:21:44;;;;;;;42.15;32.95;;;;;;;7.47;54.42;102586.03;5091182;28;20107;-66
2022/03/20 11:24:11;;;;;;;40.25;32.67;;;;;;;7.34;54.66;102571.34;5091168;28;20058;-65
2022/03/20 11:26:39;;;;;;;43.40;33.60;;;;;;;7.37;54.74;102564.19;5090649;28;20023;-66
2022/03/20 11:29:08;;;;;;;47.00;33.50;;;;;;;7.28;55.18;102564.41;5097026;28;20020;-65
2022/03/20 11:31:38;;;;;;;41.05;32.70;;;;;;;7.26;55.52;102569.75;5093204;28;20035;-65
2022/03/20 11:34:06;;;;;;;43.63;33.80;;;;;;;7.23;55.56;102564.47;5073654;28;20024;-66
2022/03/20 11:36:34;;;;;;;46.03;34.83;;;;;;;7.21;56.01;102557.50;5090668;28;20027;-66
2022/03/20 11:39:12;;;;;;;46.25;32.97;;;;;;;7.20;55.92;102558.41;5094071;28;20024;-65
2022/03/20 11:41:39;;;;;;;42.58;32.95;;;;;;;7.21;55.67;102560.16;5076422;28;20483;-67
2022/03/20 11:44:10;;;;;;;42.10;32.92;;;;;;;7.19;56.21;102567.25;5088248;28;20028;-65
2022/03/20 11:46:36;;;;;;;41.88;33.10;;;;;;;7.15;56.17;102563.81;5094818;28;20114;-65
2022/03/20 11:49:17;;;;;;;40.75;32.10;;;;;;;7.25;56.10;102565.34;5102163;28;20030;-66
2022/03/20 11:52:14;;;;;;;43.10;33.10;;;;;;;7.35;55.67;102573.94;5101122;28;20032;-66